createdAt,value
2022-10-18T00:01:09.039Z,48.78
2022-10-18T00:03:37.733Z,52.45
2022-10-18T00:06:09.125Z,54.58
2022-10-18T00:08:38.886Z,57.72
2022-10-18T00:11:08.332Z,54.00
2022-10-18T00:13:37.142Z,57.95
2022-10-18T00:16:11.884Z,56.47
2022-10-18T00:18:40.452Z,60.58
2022-10-18T00:21:13.341Z,64.30
2022-10-18T00:23:42.035Z,64.95
2022-10-18T00:26:25.251Z,62.50
2022-10-18T00:29:04.425Z,61.63
2022-10-18T00:31:35.468Z,53.30
2022-10-18T00:34:06.912Z,60.30
2022-10-18T00:36:35.420Z,55.78
2022-10-18T00:39:05.881Z,49.05
2022-10-18T00:41:36.622Z,53.40
2022-10-18T00:44:27.555Z,48.15
2022-10-18T00:47:09.544Z,43.25
2022-10-18T00:49:48.619Z,43.63
2022-10-18T00:52:33.986Z,42.03
2022-10-18T00:55:03.310Z,45.47
2022-10-18T00:57:32.150Z,43.60
2022-10-18T01:00:00.392Z,47.05
2022-10-18T01:02:29.486Z,52.28
2022-10-18T01:04:57.791Z,52.00
2022-10-18T01:07:37.675Z,50.58
2022-10-18T01:10:20.630Z,54.28
2022-10-18T01:13:25.778Z,56.65
2022-10-18T01:16:24.936Z,54.65
2022-10-18T01:19:17.071Z,54.97
2022-10-18T01:21:53.851Z,53.15
2022-10-18T01:24:55.242Z,53.92
2022-10-18T01:27:52.228Z,54.88
2022-10-18T01:30:41.262Z,49.35
2022-10-18T01:33:21.460Z,52.63
2022-10-18T01:36:40.056Z,51.88
2022-10-18T01:39:15.818Z,53.30
2022-10-18T01:41:46.941Z,55.40
2022-10-18T01:44:25.146Z,56.60
2022-10-18T01:46:55.848Z,57.40
2022-10-18T01:49:25.518Z,52.70
2022-10-18T01:51:54.120Z,54.25
2022-10-18T01:54:42.906Z,53.92
2022-10-18T01:57:37.731Z,61.92
2022-10-18T02:00:08.703Z,56.47
2022-10-18T02:02:57.168Z,62.38
2022-10-18T02:05:48.087Z,57.28
2022-10-18T02:08:48.595Z,59.47
2022-10-18T02:11:17.915Z,59.40
2022-10-18T02:14:03.460Z,64.13
2022-10-18T02:17:03.276Z,60.75
2022-10-18T02:19:41.629Z,57.10
2022-10-18T02:22:30.458Z,64.07
2022-10-18T02:25:03.322Z,61.83
2022-10-18T02:27:31.599Z,59.07
2022-10-18T02:30:00.779Z,56.50
2022-10-18T02:32:38.245Z,55.35
2022-10-18T02:35:23.687Z,57.10
2022-10-18T02:37:54.396Z,55.63
2022-10-18T02:40:24.438Z,59.22
2022-10-18T02:42:56.815Z,63.58
2022-10-18T02:45:26.151Z,60.33
2022-10-18T02:47:54.556Z,54.38
2022-10-18T02:50:22.908Z,59.88
2022-10-18T02:52:51.111Z,55.53
2022-10-18T02:55:19.761Z,52.38
2022-10-18T02:57:48.075Z,54.03
2022-10-18T03:00:16.695Z,54.97
2022-10-18T03:02:45.148Z,54.35
2022-10-18T03:05:13.444Z,55.47
2022-10-18T03:07:41.658Z,61.00
2022-10-18T03:10:10.015Z,57.60
2022-10-18T03:12:38.307Z,56.13
2022-10-18T03:15:06.931Z,55.72
2022-10-18T03:17:35.235Z,58.30
2022-10-18T03:20:03.510Z,58.92
2022-10-18T03:22:34.431Z,52.25
2022-10-18T03:25:02.768Z,56.55
2022-10-18T03:27:31.229Z,60.97
2022-10-18T03:30:01.001Z,55.88
2022-10-18T03:32:29.317Z,57.17
2022-10-18T03:34:59.850Z,58.85
2022-10-18T03:37:28.079Z,59.95
2022-10-18T03:39:56.298Z,62.45
2022-10-18T03:42:24.557Z,57.00
2022-10-18T03:44:52.733Z,56.17
2022-10-18T03:47:20.969Z,62.20
2022-10-18T03:49:51.995Z,56.88
2022-10-18T03:52:22.810Z,55.05
2022-10-18T03:54:51.075Z,53.33
2022-10-18T03:57:19.247Z,55.88
2022-10-18T03:59:48.779Z,59.05
2022-10-18T04:02:17.035Z,53.88
2022-10-18T04:04:45.188Z,57.95
2022-10-18T04:07:13.449Z,57.40
2022-10-18T04:09:42.817Z,51.28
2022-10-18T04:12:11.073Z,58.25
2022-10-18T04:14:39.222Z,56.70
2022-10-18T04:17:07.418Z,57.25
2022-10-18T04:19:35.624Z,48.72
2022-10-18T04:22:03.841Z,55.83
2022-10-18T04:24:32.044Z,61.95
2022-10-18T04:27:00.245Z,58.90
2022-10-18T04:29:28.420Z,58.33
2022-10-18T04:31:56.791Z,56.95
2022-10-18T04:34:25.125Z,53.15
2022-10-18T04:36:54.347Z,56.17
2022-10-18T04:39:22.557Z,55.17
2022-10-18T04:41:50.798Z,60.05
2022-10-18T04:44:19.047Z,49.83
2022-10-18T04:46:47.187Z,47.80
2022-10-18T04:49:15.505Z,39.53
2022-10-18T04:51:43.703Z,38.03
2022-10-18T04:54:11.968Z,38.08
2022-10-18T04:56:40.137Z,42.03
2022-10-18T04:59:08.355Z,37.85
2022-10-18T05:01:36.667Z,35.45
2022-10-18T05:04:04.997Z,36.55
2022-10-18T05:06:33.186Z,32.90
2022-10-18T05:09:01.489Z,27.88
2022-10-18T05:11:29.592Z,34.95
2022-10-18T05:13:57.727Z,29.58
2022-10-18T05:16:25.987Z,33.15
2022-10-18T05:18:54.255Z,33.50
2022-10-18T05:21:22.478Z,36.83
2022-10-18T05:23:50.658Z,41.25
2022-10-18T05:26:18.870Z,37.53
2022-10-18T05:28:47.092Z,39.05
2022-10-18T05:31:17.313Z,45.95
2022-10-18T05:33:45.474Z,46.20
2022-10-18T05:36:13.678Z,49.45
2022-10-18T05:38:43.065Z,52.78
2022-10-18T05:41:12.832Z,42.40
2022-10-18T05:43:41.437Z,53.17
2022-10-18T05:46:15.174Z,50.20
2022-10-18T05:48:49.107Z,48.38
2022-10-18T05:53:46.117Z,46.78
2022-10-18T05:56:14.600Z,52.45
2022-10-18T05:58:43.515Z,48.50
2022-10-18T06:01:11.723Z,50.50
2022-10-18T06:03:40.028Z,49.88
2022-10-18T06:06:11.643Z,47.45
2022-10-18T06:08:40.905Z,56.08
2022-10-18T06:11:11.131Z,52.38
2022-10-18T06:13:48.130Z,53.45
2022-10-18T06:16:18.550Z,51.97
2022-10-18T06:18:51.479Z,48.50
2022-10-18T06:21:20.968Z,49.42
2022-10-18T06:23:56.567Z,44.95
2022-10-18T06:26:25.695Z,46.05
2022-10-18T06:28:53.989Z,39.88
2022-10-18T06:31:22.300Z,41.25
2022-10-18T06:33:50.843Z,45.03
2022-10-18T06:36:22.283Z,48.13
2022-10-18T06:38:51.269Z,43.35
2022-10-18T06:41:20.467Z,50.40
2022-10-18T06:43:50.089Z,54.17
2022-10-18T06:46:18.273Z,51.03
2022-10-18T06:48:46.977Z,57.33
2022-10-18T06:51:15.507Z,53.17
2022-10-18T06:53:59.158Z,54.90
2022-10-18T06:56:33.034Z,60.42
2022-10-18T06:59:01.390Z,52.78
2022-10-18T07:01:29.716Z,53.85
2022-10-18T07:03:57.916Z,56.05
2022-10-18T07:06:26.449Z,56.10
2022-10-18T07:08:54.769Z,53.50
2022-10-18T07:11:25.900Z,49.95
2022-10-18T07:14:00.910Z,55.53
2022-10-18T07:16:29.588Z,46.20
2022-10-18T07:18:58.216Z,53.03
2022-10-18T07:21:27.485Z,54.17
2022-10-18T07:23:56.222Z,49.50
2022-10-18T07:26:45.299Z,54.95
2022-10-18T07:29:13.588Z,57.40
2022-10-18T07:31:42.035Z,52.10
2022-10-18T07:34:13.016Z,59.47
2022-10-18T07:36:41.918Z,52.88
2022-10-18T07:39:10.278Z,55.85
2022-10-18T07:41:39.635Z,59.20
2022-10-18T07:44:07.883Z,61.83
2022-10-18T07:46:36.095Z,56.05
2022-10-18T07:49:04.406Z,51.75
2022-10-18T07:51:33.143Z,59.70
2022-10-18T07:54:01.382Z,51.30
2022-10-18T07:56:29.605Z,51.35
2022-10-18T07:58:59.153Z,50.92
2022-10-18T08:01:27.351Z,54.58
2022-10-18T08:03:55.704Z,56.45
2022-10-18T08:06:24.092Z,52.70
2022-10-18T08:08:53.132Z,57.58
2022-10-18T08:11:24.769Z,51.55
2022-10-18T08:13:54.515Z,55.20
2022-10-18T08:16:28.038Z,54.28
2022-10-18T08:18:58.873Z,53.55
2022-10-18T08:21:27.420Z,52.30
2022-10-18T08:23:55.804Z,49.42
2022-10-18T08:26:24.312Z,47.92
2022-10-18T08:29:09.911Z,54.10
2022-10-18T08:31:41.421Z,44.78
2022-10-18T08:34:09.627Z,43.65
2022-10-18T08:36:38.276Z,50.08
2022-10-18T08:39:06.560Z,47.47
2022-10-18T08:41:37.500Z,42.88
2022-10-18T08:44:25.887Z,46.22
2022-10-18T08:47:11.503Z,46.60
2022-10-18T08:49:54.438Z,45.40
2022-10-18T08:52:59.391Z,56.22
2022-10-18T08:55:38.424Z,49.35
2022-10-18T08:58:22.553Z,54.25
2022-10-18T09:01:05.333Z,51.78
2022-10-18T09:04:00.847Z,50.93
2022-10-18T09:06:34.583Z,50.15
2022-10-18T09:09:17.583Z,53.63
2022-10-18T09:12:11.690Z,57.17
2022-10-18T09:15:06.683Z,52.35
2022-10-18T09:17:34.845Z,58.97
2022-10-18T09:20:33.537Z,58.55
2022-10-18T09:23:10.564Z,52.45
2022-10-18T09:26:06.582Z,58.90
2022-10-18T09:29:03.690Z,53.78
2022-10-18T09:32:04.735Z,58.90
2022-10-18T09:34:40.388Z,50.13
2022-10-18T09:37:17.071Z,54.08
2022-10-18T09:39:48.691Z,50.65
2022-10-18T09:42:29.436Z,53.33
2022-10-18T09:45:06.467Z,57.33
2022-10-18T09:47:48.907Z,56.85
2022-10-18T09:51:03.307Z,58.75
2022-10-18T09:56:17.830Z,49.20
2022-10-18T09:58:47.965Z,50.00
2022-10-18T10:01:33.385Z,54.58
2022-10-18T10:04:01.638Z,54.53
2022-10-18T10:06:34.571Z,54.00
2022-10-18T10:09:14.116Z,51.85
2022-10-18T10:11:50.777Z,51.08
2022-10-18T10:14:27.858Z,47.97
2022-10-18T10:17:06.953Z,48.55
2022-10-18T10:19:35.127Z,50.58
2022-10-18T10:22:10.879Z,48.35
2022-10-18T10:24:53.786Z,50.15
2022-10-18T10:27:29.779Z,46.45
2022-10-18T10:30:04.146Z,47.53
2022-10-18T10:32:47.944Z,46.88
2022-10-18T10:38:29.872Z,45.22
2022-10-18T10:40:59.009Z,48.80
2022-10-18T10:43:38.195Z,47.95
2022-10-18T10:46:14.567Z,45.50
2022-10-18T10:48:48.621Z,45.63
2022-10-18T10:51:29.223Z,47.50
2022-10-18T10:54:15.369Z,40.03
2022-10-18T10:57:02.148Z,34.28
2022-10-18T10:59:45.354Z,39.00
2022-10-18T11:02:20.698Z,37.03
2022-10-18T11:04:54.668Z,39.08
2022-10-18T11:07:43.329Z,33.47
2022-10-18T11:10:11.497Z,40.97
2022-10-18T11:13:02.726Z,38.92
2022-10-18T11:15:40.663Z,33.30
2022-10-18T11:18:21.724Z,28.77
2022-10-18T11:21:23.145Z,30.52
2022-10-18T11:23:51.747Z,26.15
2022-10-18T11:26:47.017Z,25.60
2022-10-18T11:29:59.125Z,28.00
2022-10-18T11:32:50.044Z,24.90
2022-10-18T11:35:24.355Z,23.85
2022-10-18T11:38:27.095Z,25.38
2022-10-18T11:41:10.877Z,23.17
2022-10-18T11:44:18.928Z,20.83
2022-10-18T11:47:13.179Z,20.83
2022-10-18T11:49:59.388Z,20.17
2022-10-18T11:52:44.890Z,20.67
2022-10-18T11:55:30.303Z,20.15
2022-10-18T11:58:19.920Z,20.23
2022-10-18T12:01:17.021Z,18.90
2022-10-18T12:04:21.215Z,21.05
2022-10-18T12:06:53.815Z,20.77
2022-10-18T12:09:33.908Z,22.48
2022-10-18T12:12:21.859Z,17.52
2022-10-18T12:14:58.266Z,20.20
2022-10-18T12:17:43.888Z,30.75
2022-10-18T12:20:35.372Z,37.90
2022-10-18T12:23:06.496Z,35.53
2022-10-18T12:25:38.507Z,49.72
2022-10-18T12:28:41.136Z,53.95
2022-10-18T12:31:45.668Z,51.75
2022-10-18T12:34:23.027Z,55.30
2022-10-18T12:37:14.692Z,58.25
2022-10-18T12:40:05.595Z,59.65
2022-10-18T12:42:46.983Z,59.33
2022-10-18T12:45:33.070Z,58.25
2022-10-18T12:48:11.478Z,57.95
2022-10-18T12:50:43.828Z,56.90
2022-10-18T12:53:29.828Z,61.90
2022-10-18T12:56:30.811Z,54.67
2022-10-18T12:59:17.055Z,57.53
2022-10-18T13:01:51.650Z,61.28
2022-10-18T13:04:28.986Z,58.90
2022-10-18T13:07:07.816Z,64.15
2022-10-18T13:09:37.088Z,61.40
2022-10-18T13:12:10.763Z,58.00
2022-10-18T13:15:12.472Z,62.05
2022-10-18T13:17:52.710Z,66.93
2022-10-18T13:20:52.655Z,61.22
2022-10-18T13:23:45.089Z,61.22
2022-10-18T13:26:16.380Z,62.83
2022-10-18T13:28:50.359Z,60.40
2022-10-18T13:31:49.622Z,60.30
2022-10-18T13:34:34.934Z,59.85
2022-10-18T13:37:05.638Z,54.47
2022-10-18T13:39:34.308Z,57.90
2022-10-18T13:42:02.523Z,66.25
2022-10-18T13:44:44.767Z,58.08
2022-10-18T13:47:32.013Z,62.70
2022-10-18T13:50:16.735Z,68.30
2022-10-18T13:53:02.881Z,59.35
2022-10-18T13:56:08.195Z,61.78
2022-10-18T13:58:53.842Z,64.45
2022-10-18T14:01:40.401Z,72.45
2022-10-18T14:04:50.144Z,66.28
2022-10-18T14:07:19.670Z,68.35
2022-10-18T14:09:55.635Z,73.55
2022-10-18T14:12:48.187Z,70.45
2022-10-18T14:15:39.496Z,71.45
2022-10-18T14:18:16.127Z,66.07
2022-10-18T14:21:12.411Z,63.65
2022-10-18T14:23:44.865Z,64.15
2022-10-18T14:26:18.760Z,70.88
2022-10-18T14:29:06.360Z,67.72
2022-10-18T14:31:35.661Z,77.18
2022-10-18T14:34:04.410Z,64.95
2022-10-18T14:36:41.412Z,80.53
2022-10-18T14:39:21.086Z,71.97
2022-10-18T14:41:53.064Z,71.03
2022-10-18T14:44:30.025Z,75.07
2022-10-18T14:47:02.832Z,72.72
2022-10-18T14:49:35.003Z,76.25
2022-10-18T14:52:03.273Z,78.68
2022-10-18T14:54:38.980Z,86.32
2022-10-18T14:57:14.221Z,75.68
2022-10-18T14:59:52.658Z,73.38
2022-10-18T15:02:24.546Z,76.72
2022-10-18T15:05:14.727Z,75.85
2022-10-18T15:07:43.993Z,79.93
2022-10-18T15:10:27.565Z,82.57
2022-10-18T15:15:46.173Z,75.45
2022-10-18T15:18:26.851Z,76.22
2022-10-18T15:21:25.577Z,78.05
2022-10-18T15:23:55.283Z,80.40
2022-10-18T15:26:29.974Z,68.95
2022-10-18T15:29:04.493Z,77.50
2022-10-18T15:31:43.008Z,69.50
2022-10-18T15:34:23.019Z,72.25
2022-10-18T15:36:53.960Z,67.53
2022-10-18T15:39:24.686Z,75.65
2022-10-18T15:41:56.474Z,74.20
2022-10-18T15:44:34.921Z,77.43
2022-10-18T15:47:29.473Z,71.60
2022-10-18T15:49:59.050Z,67.68
2022-10-18T15:52:38.156Z,69.57
2022-10-18T15:55:33.769Z,83.68
2022-10-18T15:58:06.833Z,79.80
2022-10-18T16:00:35.137Z,77.32
2022-10-18T16:03:03.712Z,78.28
2022-10-18T16:05:31.901Z,76.90
2022-10-18T16:08:00.058Z,79.55
2022-10-18T16:10:28.231Z,77.78
2022-10-18T16:15:24.485Z,79.03
2022-10-18T16:17:53.002Z,75.35
2022-10-18T16:20:23.147Z,69.35
2022-10-18T16:22:51.355Z,83.07
2022-10-18T16:25:19.741Z,95.75
2022-10-18T16:27:47.995Z,84.22
2022-10-18T16:30:21.163Z,80.65
2022-10-18T16:32:49.371Z,83.20
2022-10-18T16:35:17.604Z,85.70
2022-10-18T16:37:45.929Z,80.53
2022-10-18T16:40:30.914Z,78.75
2022-10-18T16:42:59.179Z,76.57
2022-10-18T16:45:27.374Z,78.45
2022-10-18T16:47:55.571Z,76.30
2022-10-18T16:50:23.720Z,75.00
2022-10-18T16:52:52.081Z,83.03
2022-10-18T16:55:25.028Z,74.95
2022-10-18T16:57:53.252Z,87.32
2022-10-18T17:00:23.130Z,76.57
2022-10-18T17:02:51.473Z,79.93
2022-10-18T17:05:20.220Z,84.38
2022-10-18T17:07:51.648Z,77.05
2022-10-18T17:10:21.099Z,88.10
2022-10-18T17:12:49.283Z,78.70
2022-10-18T17:15:17.761Z,86.78
2022-10-18T17:17:47.643Z,82.32
2022-10-18T17:20:22.446Z,84.65
2022-10-18T17:22:50.639Z,84.75
2022-10-18T17:25:19.929Z,81.38
2022-10-18T17:27:48.136Z,73.95
2022-10-18T17:30:17.859Z,78.43
2022-10-18T17:32:46.058Z,74.18
2022-10-18T17:35:14.324Z,83.82
2022-10-18T17:37:45.310Z,84.10
2022-10-18T17:40:14.319Z,82.85
2022-10-18T17:42:42.543Z,77.47
2022-10-18T17:45:11.146Z,73.15
2022-10-18T17:47:39.457Z,83.22
2022-10-18T17:50:07.860Z,90.90
2022-10-18T17:52:36.307Z,88.00
2022-10-18T17:55:04.912Z,81.93
2022-10-18T17:57:33.335Z,81.20
2022-10-18T18:00:03.099Z,80.63
2022-10-18T18:02:41.905Z,76.30
2022-10-18T18:05:10.688Z,75.25
2022-10-18T18:07:38.891Z,79.75
2022-10-18T18:10:10.296Z,89.07
2022-10-18T18:12:38.746Z,81.43
2022-10-18T18:15:07.331Z,79.75
2022-10-18T18:17:56.066Z,80.53
2022-10-18T18:20:24.515Z,81.50
2022-10-18T18:22:53.043Z,77.13
2022-10-18T18:25:21.229Z,78.95
2022-10-18T18:27:49.480Z,81.60
2022-10-18T18:30:18.053Z,79.07
2022-10-18T18:32:46.408Z,79.68
2022-10-18T18:35:14.714Z,77.53
2022-10-18T18:37:42.880Z,74.35
2022-10-18T18:40:11.226Z,83.65
2022-10-18T18:42:39.470Z,76.32
2022-10-18T18:45:08.231Z,75.13
2022-10-18T18:47:39.836Z,72.00
2022-10-18T18:50:08.597Z,85.25
2022-10-18T18:52:36.912Z,80.18
2022-10-18T18:55:05.436Z,78.88
2022-10-18T18:57:33.945Z,79.22
2022-10-18T19:00:02.317Z,80.72
2022-10-18T19:02:30.494Z,77.97
2022-10-18T19:04:58.660Z,78.65
2022-10-18T19:07:26.893Z,71.15
2022-10-18T19:09:55.041Z,77.22
2022-10-18T19:12:23.239Z,76.40
2022-10-18T19:14:51.428Z,80.50
2022-10-18T19:17:19.654Z,75.20
2022-10-18T19:19:47.983Z,81.18
2022-10-18T19:22:16.137Z,81.57
2022-10-18T19:24:44.921Z,77.60
2022-10-18T19:27:13.235Z,71.85
2022-10-18T19:29:42.286Z,74.18
2022-10-18T19:32:15.431Z,76.10
2022-10-18T19:34:44.096Z,73.47
2022-10-18T19:37:14.004Z,74.55
2022-10-18T19:39:42.601Z,74.88
2022-10-18T19:42:18.640Z,79.15
2022-10-18T19:44:54.117Z,74.40
2022-10-18T19:47:23.325Z,72.53
2022-10-18T19:49:53.254Z,76.47
2022-10-18T19:52:22.970Z,79.85
2022-10-18T19:54:51.707Z,75.82
2022-10-18T19:57:20.069Z,78.25
2022-10-18T19:59:48.769Z,79.28
2022-10-18T20:02:19.583Z,78.93
2022-10-18T20:04:47.852Z,81.05
2022-10-18T20:07:16.082Z,76.47
2022-10-18T20:09:44.802Z,82.43
2022-10-18T20:12:13.066Z,81.30
2022-10-18T20:14:41.199Z,81.55
2022-10-18T20:17:12.113Z,84.57
2022-10-18T20:19:40.350Z,78.53
2022-10-18T20:22:08.547Z,77.68
2022-10-18T20:24:37.191Z,79.45
2022-10-18T20:27:05.518Z,77.90
2022-10-18T20:29:35.606Z,84.35
2022-10-18T20:32:03.858Z,72.55
2022-10-18T20:34:32.573Z,83.85
2022-10-18T20:37:01.844Z,79.18
2022-10-18T20:39:30.296Z,79.63
2022-10-18T20:41:58.861Z,86.63
2022-10-18T20:44:27.113Z,82.43
2022-10-18T20:46:55.371Z,91.05
2022-10-18T20:49:23.633Z,90.50
2022-10-18T20:51:51.910Z,90.47
2022-10-18T20:54:20.178Z,80.60
2022-10-18T20:56:48.456Z,84.35
2022-10-18T20:59:17.127Z,78.30
2022-10-18T21:01:45.354Z,85.25
2022-10-18T21:04:13.888Z,85.93
2022-10-18T21:06:45.446Z,88.90
2022-10-18T21:09:17.477Z,85.65
2022-10-18T21:11:49.361Z,90.35
2022-10-18T21:14:20.482Z,88.53
2022-10-18T21:16:52.526Z,92.65
2022-10-18T21:19:27.740Z,85.43
2022-10-18T21:21:57.600Z,90.40
2022-10-18T21:24:26.812Z,87.47
2022-10-18T21:26:55.087Z,90.45
2022-10-18T21:29:24.884Z,86.60
2022-10-18T21:31:59.383Z,93.18
2022-10-18T21:34:27.731Z,89.05
2022-10-18T21:36:55.926Z,89.18
2022-10-18T21:41:57.684Z,87.20
2022-10-18T21:44:25.958Z,88.63
2022-10-18T21:46:55.060Z,87.35
2022-10-18T21:49:25.082Z,91.28
2022-10-18T21:51:53.359Z,83.88
2022-10-18T21:54:21.519Z,85.20
2022-10-18T21:56:51.118Z,86.20
2022-10-18T21:59:19.214Z,84.55
2022-10-18T22:01:47.337Z,82.47
2022-10-18T22:04:23.983Z,90.50
2022-10-18T22:06:52.432Z,92.80
2022-10-18T22:09:21.496Z,93.97
2022-10-18T22:11:52.269Z,90.88
2022-10-18T22:14:21.598Z,92.80
2022-10-18T22:16:50.174Z,90.68
2022-10-18T22:19:21.335Z,95.53
2022-10-18T22:21:49.906Z,86.72
2022-10-18T22:24:18.348Z,95.90
2022-10-18T22:26:46.759Z,90.63
2022-10-18T22:29:20.533Z,88.85
2022-10-18T22:31:53.744Z,87.10
2022-10-18T22:34:26.262Z,88.05
2022-10-18T22:36:54.700Z,90.77
2022-10-18T22:39:24.553Z,90.57
2022-10-18T22:41:55.907Z,90.78
2022-10-18T22:44:25.216Z,88.68
2022-10-18T22:46:53.423Z,90.80
2022-10-18T22:49:21.624Z,93.40
2022-10-18T22:51:49.834Z,95.57
2022-10-18T22:54:18.430Z,91.72
2022-10-18T22:56:46.642Z,93.53
2022-10-18T22:59:14.847Z,96.18
2022-10-18T23:01:43.017Z,95.85
2022-10-18T23:04:11.503Z,93.03
2022-10-18T23:06:40.813Z,93.03
2022-10-18T23:09:10.841Z,97.47
2022-10-18T23:11:39.286Z,95.03
2022-10-18T23:14:07.601Z,96.80
2022-10-18T23:16:35.889Z,98.28
2022-10-18T23:19:05.376Z,92.43
2022-10-18T23:21:34.568Z,98.90
2022-10-18T23:24:03.494Z,100.97
2022-10-18T23:26:32.002Z,96.93
2022-10-18T23:29:00.445Z,99.70
2022-10-18T23:31:32.954Z,97.28
2022-10-18T23:34:04.026Z,110.63
2022-10-18T23:36:33.397Z,106.93
2022-10-18T23:39:03.183Z,93.20
2022-10-18T23:41:31.404Z,99.78
2022-10-18T23:43:59.656Z,101.53
2022-10-18T23:46:28.252Z,99.22
2022-10-18T23:48:56.496Z,96.70
2022-10-18T23:51:24.799Z,95.90
2022-10-18T23:53:53.113Z,92.53
2022-10-18T23:56:21.340Z,97.53
2022-10-18T23:58:52.245Z,93.03
